Time;durP1;ratioP1;P1;durP2;ratioP2;P2;SDS_P1;SDS_P2;PMS_P1;PMS_P2;Temp;Humidity;BMP_temperature;BMP_pressure;BME280_temperature;BME280_humidity;BME280_pressure;Samples;Min_cycle;Max_cycle;Signal;HPM_P1;HPM_P2
2021/09/14 00:00:52;;;;;;;14.15;7.75;;;;;;;26.48;31.78;101147.16;143728;705;47002;-61
2021/09/14 00:03:30;;;;;;;11.80;7.87;;;;;;;26.48;31.47;101143.59;143729;625;46009;-61
2021/09/14 00:06:17;;;;;;;12.68;7.22;;;;;;;26.49;31.75;101147.97;143727;577;46010;-61
2021/09/14 00:08:54;;;;;;;11.48;7.25;;;;;;;26.51;31.53;101150.44;143726;572;47008;-61
2021/09/14 00:11:35;;;;;;;14.77;7.95;;;;;;;26.51;31.30;101145.75;143728;604;47000;-62
2021/09/14 00:14:13;;;;;;;8.60;7.25;;;;;;;26.49;31.79;101146.03;143726;640;46013;-61
2021/09/14 00:16:50;;;;;;;8.55;7.18;;;;;;;26.49;31.37;101147.97;143726;702;46010;-61
2021/09/14 00:19:26;;;;;;;16.05;7.87;;;;;;;26.52;31.33;101149.31;143727;720;46007;-61
2021/09/14 00:22:07;;;;;;;10.90;7.43;;;;;;;26.55;31.34;101151.47;143728;682;47002;-62
2021/09/14 00:24:46;;;;;;;10.73;7.25;;;;;;;26.58;31.91;101145.37;143724;608;47004;-60
2021/09/14 00:27:33;;;;;;;13.18;7.68;;;;;;;26.56;31.36;101150.38;143724;595;47004;-61
2021/09/14 00:30:12;;;;;;;11.45;8.18;;;;;;;26.54;31.43;101147.09;143727;716;46008;-60
2021/09/14 00:32:53;;;;;;;9.70;7.20;;;;;;;26.54;31.52;101139.66;143727;586;47002;-62
2021/09/14 00:35:30;;;;;;;12.85;8.07;;;;;;;26.53;31.24;101148.19;143726;574;46010;-62
2021/09/14 00:38:08;;;;;;;12.80;8.70;;;;;;;26.52;30.92;101147.41;143725;595;47004;-61
2021/09/14 00:40:45;;;;;;;10.38;7.32;;;;;;;26.52;31.27;101143.81;143727;569;46004;-61
2021/09/14 00:43:32;;;;;;;12.73;7.35;;;;;;;26.52;31.50;101143.81;143729;648;47000;-60
2021/09/14 00:46:08;;;;;;;9.18;7.12;;;;;;;26.51;31.54;101148.50;143726;660;46023;-61
2021/09/14 00:48:44;;;;;;;14.60;7.90;;;;;;;26.52;31.54;101141.06;143725;602;47006;-61
2021/09/14 00:51:24;;;;;;;14.80;7.62;;;;;;;26.50;31.72;101149.63;143724;573;47006;-60
2021/09/14 00:54:00;;;;;;;15.50;8.85;;;;;;;26.49;31.77;101142.47;143729;589;47002;-61
2021/09/14 00:56:40;;;;;;;13.62;9.65;;;;;;;26.47;31.70;101151.03;143726;579;46010;-61
2021/09/14 00:59:16;;;;;;;14.15;9.77;;;;;;;26.45;31.93;101152.44;143726;575;46006;-61
2021/09/14 01:01:56;;;;;;;13.70;8.82;;;;;;;26.45;31.56;101155.19;143727;590;46008;-61
2021/09/14 01:04:31;;;;;;;12.40;8.73;;;;;;;26.43;31.64;101147.25;143730;589;46003;-61
2021/09/14 01:07:10;;;;;;;13.18;7.90;;;;;;;26.43;31.48;101152.75;143726;593;46008;-61
2021/09/14 01:09:51;;;;;;;14.68;8.00;;;;;;;26.40;31.69;101153.31;143725;619;47006;-61
2021/09/14 01:12:28;;;;;;;13.62;7.93;;;;;;;26.38;31.63;101161.06;143726;641;46007;-62
2021/09/14 01:15:07;;;;;;;13.75;7.65;;;;;;;26.40;31.63;101147.81;143727;586;47000;-61
2021/09/14 01:17:45;;;;;;;11.50;7.55;;;;;;;26.39;31.79;101148.09;143727;667;46010;-60
2021/09/14 01:20:26;;;;;;;11.18;7.97;;;;;;;26.37;31.60;101153.09;143727;646;46008;-61
2021/09/14 01:23:08;;;;;;;12.43;7.53;;;;;;;26.38;31.62;101144.53;143727;584;46006;-61
2021/09/14 01:25:47;;;;;;;13.65;7.50;;;;;;;26.39;31.35;101146.19;143727;629;47002;-61
2021/09/14 01:28:23;;;;;;;11.45;7.25;;;;;;;26.38;31.38;101149.25;143726;593;46010;-62
2021/09/14 01:30:59;;;;;;;7.87;6.97;;;;;;;26.38;31.38;101146.50;143725;623;47006;-59
2021/09/14 01:33:37;;;;;;;7.70;6.60;;;;;;;26.37;31.60;101153.09;143725;606;47007;-61
2021/09/14 01:36:14;;;;;;;8.80;6.80;;;;;;;26.36;31.82;101146.75;143726;572;47002;-60
2021/09/14 01:38:54;;;;;;;10.40;7.32;;;;;;;26.34;31.58;101151.75;143726;572;46008;-61
2021/09/14 01:41:34;;;;;;;9.57;7.25;;;;;;;26.33;31.59;101150.94;143725;668;47006;-61
2021/09/14 01:44:12;;;;;;;13.20;8.32;;;;;;;26.30;31.68;101151.53;143725;591;46008;-61
2021/09/14 01:46:52;;;;;;;10.68;7.15;;;;;;;26.24;31.64;101158.19;143729;656;46010;-61
2021/09/14 01:49:31;;;;;;;14.27;7.85;;;;;;;26.21;31.86;101156.03;143726;589;46012;-60
2021/09/14 01:52:08;;;;;;;9.68;7.43;;;;;;;26.21;31.90;101149.72;143726;602;46008;-61
2021/09/14 01:54:44;;;;;;;13.98;7.72;;;;;;;26.24;31.98;101152.69;143727;599;46008;-61
2021/09/14 01:57:29;;;;;;;13.82;8.00;;;;;;;26.25;32.64;101154.34;143727;628;46010;-61
2021/09/14 02:00:09;;;;;;;11.45;7.22;;;;;;;26.23;32.05;101153.00;143726;583;46008;-62
2021/09/14 02:03:12;;;;;;;8.73;7.10;;;;;;;26.25;32.08;101153.53;143722;599;47004;-61
2021/09/14 02:42:15;;;;;;;14.85;10.00;;;;;;;25.88;33.01;101161.34;143727;582;46009;-62
2021/09/14 02:56:39;;;;;;;14.93;9.30;;;;;;;25.81;33.79;101175.44;143729;576;47010;-61
2021/09/14 02:59:15;;;;;;;14.05;9.20;;;;;;;25.79;33.51;101174.09;143724;612;47002;-61
2021/09/14 03:01:51;;;;;;;15.05;9.45;;;;;;;25.80;33.27;101178.50;143727;586;47004;-61
2021/09/14 03:04:30;;;;;;;12.57;8.68;;;;;;;25.79;34.08;101180.41;143726;595;47009;-61
2021/09/14 03:07:07;;;;;;;18.80;9.25;;;;;;;25.75;34.40;101178.53;143730;599;46006;-62
2021/09/14 03:09:46;;;;;;;12.77;8.60;;;;;;;25.71;33.55;101175.56;143728;593;46010;-60
2021/09/14 03:12:23;;;;;;;15.88;8.55;;;;;;;25.67;33.79;101185.50;143726;597;47006;-61
2021/09/14 03:15:01;;;;;;;10.98;8.48;;;;;;;25.60;34.34;101185.00;143726;581;47006;-61
2021/09/14 03:17:38;;;;;;;11.57;7.47;;;;;;;25.55;34.70;101188.63;143729;623;47000;-61
2021/09/14 03:20:16;;;;;;;9.30;6.97;;;;;;;25.50;34.66;101189.50;143725;633;46013;-61
2021/09/14 03:22:52;;;;;;;8.88;7.78;;;;;;;25.48;34.43;101193.66;143726;596;46008;-62
2021/09/14 03:25:32;;;;;;;14.57;7.62;;;;;;;25.51;34.22;101191.12;143727;627;46019;-61
2021/09/14 03:28:18;;;;;;;13.45;8.20;;;;;;;25.51;35.36;101199.37;143728;590;46010;-61
2021/09/14 03:30:56;;;;;;;14.27;8.15;;;;;;;25.48;35.25;101199.97;143726;567;46010;-61
2021/09/14 03:33:34;;;;;;;11.12;7.87;;;;;;;25.51;34.54;101204.06;143727;601;46008;-62
2021/09/14 03:36:15;;;;;;;14.68;7.68;;;;;;;25.52;34.00;101202.94;143726;597;46008;-61
2021/09/14 03:38:54;;;;;;;14.82;7.62;;;;;;;25.50;34.44;101206.00;143725;566;47002;-62
2021/09/14 03:41:30;;;;;;;11.80;7.85;;;;;;;25.48;34.16;101212.91;143724;589;47002;-61
2021/09/14 03:44:10;;;;;;;14.43;7.87;;;;;;;25.46;34.64;101209.63;143727;592;47006;-61
2021/09/14 03:46:47;;;;;;;19.12;8.55;;;;;;;25.45;34.44;101214.28;143727;566;46015;-61
2021/09/14 03:49:23;;;;;;;11.95;7.60;;;;;;;25.41;34.77;101211.25;143728;596;47002;-61
2021/09/14 03:52:03;;;;;;;13.13;7.82;;;;;;;25.41;34.67;101215.94;143726;598;46017;-60
2021/09/14 03:54:41;;;;;;;16.48;8.73;;;;;;;25.40;34.69;101212.38;143725;647;47004;-61
2021/09/14 03:57:18;;;;;;;11.05;7.82;;;;;;;25.38;34.76;101213.78;143724;597;47004;-61
2021/09/14 03:59:54;;;;;;;16.45;8.20;;;;;;;25.37;34.88;101215.69;143725;634;47002;-60
2021/09/14 04:11:29;;;;;;;11.02;8.32;;;;;;;25.37;34.65;101220.37;143725;629;47004;-61
2021/09/14 04:14:06;;;;;;;20.25;8.80;;;;;;;25.37;34.49;101226.69;143725;628;46008;-61
2021/09/14 04:16:45;;;;;;;13.50;8.43;;;;;;;25.40;34.46;101217.06;143723;592;47006;-61
2021/09/14 04:19:21;;;;;;;16.67;8.48;;;;;;;25.42;34.29;101223.94;143725;595;46008;-60
2021/09/14 04:22:05;;;;;;;13.57;8.48;;;;;;;25.45;34.23;101221.72;143726;624;47000;-61
2021/09/14 04:24:46;;;;;;;19.30;8.48;;;;;;;25.44;34.17;101229.13;143723;583;46009;-62
2021/09/14 04:27:26;;;;;;;13.02;8.07;;;;;;;25.43;33.92;101228.31;143724;596;47006;-61
2021/09/14 04:30:02;;;;;;;16.15;8.40;;;;;;;25.41;34.20;101235.19;143725;598;46006;-60
2021/09/14 04:32:41;;;;;;;12.73;8.43;;;;;;;25.41;34.46;101241.50;143725;577;47002;-61
2021/09/14 04:35:18;;;;;;;12.18;8.10;;;;;;;25.44;34.32;101242.88;143725;631;46008;-60
2021/09/14 04:37:57;;;;;;;10.93;8.10;;;;;;;25.47;34.53;101242.31;143723;594;47004;-62
2021/09/14 04:40:34;;;;;;;11.80;8.20;;;;;;;25.49;34.52;101237.34;143725;617;46009;-61
2021/09/14 04:43:13;;;;;;;17.45;9.27;;;;;;;25.48;35.23;101237.66;143726;574;47002;-61
2021/09/14 04:45:49;;;;;;;23.50;9.52;;;;;;;25.47;35.79;101233.25;143726;602;46008;-61
2021/09/14 04:48:29;;;;;;;22.08;9.25;;;;;;;25.45;35.69;101241.78;143723;640;47007;-60
2021/09/14 04:51:06;;;;;;;16.58;8.82;;;;;;;25.45;36.15;101247.28;143725;569;46006;-61
2021/09/14 04:53:46;;;;;;;16.37;9.32;;;;;;;25.46;35.63;101245.38;143726;615;46010;-61
2021/09/14 04:56:26;;;;;;;18.42;9.38;;;;;;;25.51;35.81;101248.88;143725;619;46008;-61
2021/09/14 04:59:03;;;;;;;10.63;8.55;;;;;;;25.54;35.96;101244.72;143723;583;47004;-62
2021/09/14 05:01:45;;;;;;;13.50;8.30;;;;;;;25.51;35.72;101250.81;143723;603;46008;-61
2021/09/14 05:04:33;;;;;;;15.40;8.95;;;;;;;25.46;35.78;101256.38;143725;657;47002;-60
2021/09/14 05:07:10;;;;;;;13.70;8.13;;;;;;;25.40;36.08;101256.38;143723;567;46010;-62
2021/09/14 05:09:49;;;;;;;11.75;8.18;;;;;;;25.37;36.03;101259.69;143724;585;46004;-62
2021/09/14 05:12:34;;;;;;;15.43;9.38;;;;;;;25.40;36.18;101259.12;143725;619;46008;-62
2021/09/14 05:18:10;;;;;;;15.80;9.60;;;;;;;25.41;36.36;101270.94;143726;585;45915;-61
2021/09/14 05:20:49;;;;;;;17.15;9.10;;;;;;;25.38;36.51;101269.56;143725;591;46006;-61
2021/09/14 05:23:31;;;;;;;17.10;8.75;;;;;;;25.42;36.09;101270.69;143724;613;47006;-62
2021/09/14 05:26:12;;;;;;;15.60;8.60;;;;;;;25.41;36.03;101273.69;143725;569;47002;-61
2021/09/14 05:28:52;;;;;;;14.25;8.93;;;;;;;25.41;35.91;101271.75;143724;569;46010;-61
2021/09/14 05:31:29;;;;;;;20.90;9.25;;;;;;;25.43;36.32;101272.31;143722;585;47004;-59
2021/09/14 05:34:07;;;;;;;13.77;8.93;;;;;;;25.50;36.17;101268.44;143724;593;46008;-60
2021/09/14 05:36:44;;;;;;;15.00;8.60;;;;;;;25.56;36.00;101279.12;143724;572;47000;-61
2021/09/14 05:39:24;;;;;;;17.98;9.48;;;;;;;25.57;35.98;101269.75;143724;606;46010;-61
2021/09/14 05:42:00;;;;;;;24.90;10.70;;;;;;;25.57;36.21;101275.25;143724;577;47006;-60
2021/09/14 05:44:39;;;;;;;14.85;10.82;;;;;;;25.61;36.32;101278.25;143725;592;46008;-61
2021/09/14 05:47:16;;;;;;;15.65;9.30;;;;;;;25.70;35.69;101281.19;143725;601;47000;-62
2021/09/14 05:49:58;;;;;;;23.08;8.88;;;;;;;25.83;35.35;101274.22;143724;592;46010;-59
2021/09/14 05:52:39;;;;;;;14.90;7.45;;;;;;;25.93;34.66;101274.13;143725;613;46012;-61
2021/09/14 05:55:21;;;;;;;15.75;7.62;;;;;;;25.93;34.55;101279.62;143726;618;46009;-61
2021/09/14 05:58:01;;;;;;;18.42;8.27;;;;;;;25.96;34.59;101279.06;143726;586;47000;-61
2021/09/14 06:00:37;;;;;;;9.10;6.95;;;;;;;26.00;34.57;101279.28;143723;566;46012;-61
2021/09/14 06:03:17;;;;;;;9.70;7.50;;;;;;;26.00;34.44;101271.88;143723;572;47006;-60
2021/09/14 06:05:54;;;;;;;9.57;7.28;;;;;;;26.08;34.13;101281.44;143726;625;46020;-61
2021/09/14 06:08:42;;;;;;;15.70;7.57;;;;;;;26.10;33.95;101276.44;143726;594;47000;-61
2021/09/14 06:11:18;;;;;;;14.57;7.12;;;;;;;26.12;33.89;101277.00;143724;591;46010;-62
2021/09/14 06:14:01;;;;;;;13.95;7.40;;;;;;;26.14;33.75;101279.47;143723;653;47004;-62
2021/09/14 06:16:39;;;;;;;15.05;7.30;;;;;;;26.26;33.58;101281.81;143723;568;46009;-61
2021/09/14 06:19:15;;;;;;;14.60;7.10;;;;;;;26.29;33.43;101281.25;143725;591;47000;-62
2021/09/14 06:21:54;;;;;;;11.35;6.62;;;;;;;26.37;33.33;101277.84;143724;600;46010;-62
2021/09/14 06:24:32;;;;;;;12.40;6.85;;;;;;;26.44;33.28;101283.00;143723;578;46019;-61
2021/09/14 06:27:10;;;;;;;16.15;6.97;;;;;;;26.51;33.33;101285.41;143725;592;46006;-60
2021/09/14 06:29:46;;;;;;;12.07;7.03;;;;;;;26.58;33.23;101289.44;143725;576;47010;-61
2021/09/14 06:32:26;;;;;;;13.23;7.00;;;;;;;26.64;33.22;101285.53;143723;613;46010;-61
2021/09/14 06:35:02;;;;;;;13.85;7.05;;;;;;;26.75;32.96;101285.38;143722;575;47004;-61
2021/09/14 06:37:39;;;;;;;9.15;6.87;;;;;;;26.83;33.04;101293.03;143725;592;46008;-62
2021/09/14 06:40:16;;;;;;;11.57;7.20;;;;;;;26.91;33.28;101288.81;143727;568;46009;-61
2021/09/14 06:42:52;;;;;;;10.27;7.37;;;;;;;27.01;33.25;101293.38;143723;567;46925;-61
2021/09/14 06:45:28;;;;;;;15.80;10.95;;;;;;;27.07;33.17;101294.94;143723;591;47004;-60
2021/09/14 06:48:09;;;;;;;12.13;7.50;;;;;;;27.16;32.99;101287.63;143724;584;47005;-62
2021/09/14 06:50:48;;;;;;;8.57;7.05;;;;;;;27.24;33.08;101286.97;143725;622;47000;-61
2021/09/14 06:53:29;;;;;;;11.23;6.87;;;;;;;27.34;32.73;101285.16;143724;604;46927;-61
2021/09/14 06:56:06;;;;;;;11.77;6.93;;;;;;;27.41;32.63;101290.31;143725;617;46010;-61
2021/09/14 06:58:45;;;;;;;8.32;6.18;;;;;;;27.49;32.87;101298.75;143725;572;46008;-61
2021/09/14 07:01:31;;;;;;;10.65;8.40;;;;;;;27.60;33.26;101299.41;143726;579;47000;-62
2021/09/14 07:04:10;;;;;;;10.35;7.05;;;;;;;27.67;32.36;101294.34;143724;574;46008;-61
2021/09/14 07:06:54;;;;;;;11.98;8.60;;;;;;;27.77;33.02;101300.81;143724;601;47006;-63
2021/09/14 07:09:34;;;;;;;16.42;6.90;;;;;;;27.84;32.04;101302.06;143725;656;46006;-60
2021/09/14 07:12:09;;;;;;;13.20;8.82;;;;;;;27.94;32.20;101303.03;143725;583;47002;-61
2021/09/14 07:14:50;;;;;;;12.10;8.50;;;;;;;28.03;31.56;101308.66;143725;567;46010;-62
2021/09/14 07:17:25;;;;;;;11.25;6.68;;;;;;;28.09;31.23;101294.47;143724;582;46005;-62
2021/09/14 07:20:05;;;;;;;11.68;6.55;;;;;;;28.22;30.95;101306.69;143726;581;46008;-62
2021/09/14 07:22:41;;;;;;;12.95;7.05;;;;;;;28.29;31.12;101309.06;143725;607;46025;-61
2021/09/14 07:25:21;;;;;;;10.60;6.03;;;;;;;28.35;28.81;101309.78;143724;611;46011;-61
2021/09/14 07:27:58;;;;;;;7.78;6.30;;;;;;;28.42;29.35;101316.53;143723;573;47006;-61
2021/09/14 07:30:38;;;;;;;10.60;6.45;;;;;;;28.53;29.82;101322.69;143725;603;46008;-62
2021/09/14 07:33:13;;;;;;;7.80;7.00;;;;;;;28.63;30.90;101316.13;143725;651;46010;-62
2021/09/14 07:36:01;;;;;;;8.10;5.68;;;;;;;28.71;29.60;101326.44;143724;708;46010;-62
2021/09/14 07:38:46;;;;;;;10.43;6.53;;;;;;;28.78;30.68;101317.78;143724;698;47007;-62
2021/09/14 07:41:22;;;;;;;8.85;6.75;;;;;;;28.86;29.54;101322.59;143724;577;46006;-61
2021/09/14 07:44:01;;;;;;;8.73;6.03;;;;;;;28.88;29.26;101317.59;143725;723;46010;-62
2021/09/14 07:46:41;;;;;;;7.97;5.43;;;;;;;28.98;28.72;101324.00;143724;728;46012;-62
2021/09/14 07:49:17;;;;;;;7.68;6.00;;;;;;;29.02;28.67;101328.63;143724;596;46004;-60
2021/09/14 07:51:57;;;;;;;9.68;6.40;;;;;;;29.11;28.83;101330.66;143725;673;46008;-61
2021/09/14 07:54:32;;;;;;;9.27;5.93;;;;;;;29.14;29.38;101330.84;143726;573;47000;-61
2021/09/14 07:57:09;;;;;;;10.68;5.90;;;;;;;29.24;28.58;101326.22;143724;607;46008;-61
2021/09/14 07:59:50;;;;;;;8.85;6.10;;;;;;;29.31;28.58;101335.72;143724;714;46010;-62
2021/09/14 08:02:29;;;;;;;8.30;5.78;;;;;;;29.38;28.14;101329.78;143725;684;46009;-63
2021/09/14 08:05:07;;;;;;;8.07;5.95;;;;;;;29.42;28.62;101333.59;143725;606;47000;-61
2021/09/14 08:07:46;;;;;;;12.18;6.05;;;;;;;29.47;27.99;101330.72;143722;588;47006;-62
2021/09/14 08:10:27;;;;;;;10.65;6.35;;;;;;;29.49;28.37;101336.72;143723;572;47006;-61
2021/09/14 08:13:04;;;;;;;8.77;6.30;;;;;;;29.59;28.91;101343.16;143726;739;46006;-61
2021/09/14 08:15:42;;;;;;;7.87;6.12;;;;;;;29.68;27.89;101335.72;143718;590;47002;-61
2021/09/14 08:18:18;;;;;;;11.15;6.25;;;;;;;29.80;28.30;101329.63;143724;679;46013;-61
2021/09/14 08:20:58;;;;;;;7.82;6.20;;;;;;;29.87;27.69;101326.41;143723;649;47006;-62
2021/09/14 08:23:36;;;;;;;8.75;6.22;;;;;;;29.93;27.15;101323.19;143725;665;46007;-63
2021/09/14 08:26:15;;;;;;;8.52;5.75;;;;;;;29.98;27.15;101321.47;143722;673;47000;-62
2021/09/14 08:28:51;;;;;;;10.75;6.45;;;;;;;30.09;27.23;101322.84;143724;572;46012;-62
2021/09/14 08:31:29;;;;;;;15.27;6.43;;;;;;;30.19;27.02;101316.19;143721;653;47004;-63
2021/09/14 08:34:06;;;;;;;13.07;6.12;;;;;;;30.30;26.92;101316.75;143722;603;47006;-63
2021/09/14 08:36:42;;;;;;;8.05;5.85;;;;;;;30.36;26.65;101309.94;143726;640;47002;-63
2021/09/14 08:39:21;;;;;;;9.90;6.03;;;;;;;30.35;26.61;101314.69;143725;616;46012;-62
2021/09/14 08:42:00;;;;;;;7.55;6.12;;;;;;;30.47;26.64;101302.97;143723;582;47004;-62
2021/09/14 08:44:44;;;;;;;9.57;6.20;;;;;;;30.56;25.94;101308.56;143722;582;46010;-63
2021/09/14 08:47:20;;;;;;;12.10;6.43;;;;;;;30.69;26.53;101302.09;143725;575;46010;-63
2021/09/14 08:49:58;;;;;;;8.15;6.60;;;;;;;30.75;26.42;101313.84;143723;586;46010;-61
2021/09/14 08:52:37;;;;;;;8.50;6.40;;;;;;;30.85;24.78;101307.19;143724;614;47004;-62
2021/09/14 08:55:17;;;;;;;8.98;5.82;;;;;;;30.92;24.54;101307.50;143718;578;47008;-61
2021/09/14 08:58:14;;;;;;;10.30;6.32;;;;;;;31.02;25.61;101311.13;143727;597;47002;-60
2021/09/14 09:01:08;;;;;;;10.68;6.60;;;;;;;31.12;25.96;101303.31;143724;567;46009;-61
2021/09/14 09:03:47;;;;;;;7.90;6.00;;;;;;;31.09;24.42;101297.59;143724;576;47006;-60
2021/09/14 09:06:31;;;;;;;12.68;6.05;;;;;;;31.14;25.23;101306.62;143722;573;47006;-62
2021/09/14 09:09:33;;;;;;;;;;;;;;;31.24;25.23;101305.44;143730;984;47000;-62
2021/09/14 09:12:14;;;;;;;12.15;6.35;;;;;;;31.36;25.45;101296.47;143727;581;46012;-61
2021/09/14 09:14:55;;;;;;;10.65;6.12;;;;;;;31.42;25.60;101297.97;143719;653;47008;-61
2021/09/14 09:17:34;;;;;;;7.78;5.93;;;;;;;31.50;24.79;101292.75;143725;576;46009;-61
2021/09/14 09:20:09;;;;;;;7.75;5.90;;;;;;;31.57;24.35;101296.66;143725;578;47000;-62
2021/09/14 09:22:48;;;;;;;9.52;5.78;;;;;;;31.60;24.69;101295.16;143723;576;46010;-63
2021/09/14 09:25:33;;;;;;;16.12;5.85;;;;;;;31.71;24.80;101292.91;143719;605;48006;-62
2021/09/14 09:28:15;;;;;;;9.45;5.80;;;;;;;31.75;24.62;101297.47;143724;570;46004;-63
2021/09/14 09:31:02;;;;;;;8.52;6.03;;;;;;;31.82;23.87;101296.94;143725;575;46011;-63
2021/09/14 09:33:40;;;;;;;11.15;6.12;;;;;;;31.87;25.28;101299.56;143714;586;46010;-63
2021/09/14 09:36:18;;;;;;;7.32;5.28;;;;;;;32.00;25.03;101305.25;143723;566;47006;-64
2021/09/14 09:38:58;;;;;;;7.47;6.05;;;;;;;32.06;24.14;101288.06;143722;603;46009;-62
2021/09/14 09:41:42;;;;;;;9.20;5.57;;;;;;;32.14;22.48;101291.94;143725;710;46004;-63
2021/09/14 09:44:21;;;;;;;8.20;5.90;;;;;;;32.18;21.79;101292.13;143721;665;46012;-63
2021/09/14 09:47:03;;;;;;;9.68;5.60;;;;;;;32.21;21.37;101288.69;143723;573;47007;-62
2021/09/14 09:49:47;;;;;;;10.93;6.03;;;;;;;32.30;21.90;101291.44;143724;597;46006;-62
2021/09/14 09:52:26;;;;;;;8.10;5.47;;;;;;;32.37;22.15;101294.50;143726;583;47002;-62
2021/09/14 09:55:05;;;;;;;12.93;5.62;;;;;;;32.46;20.69;101291.69;143723;610;46013;-64
2021/09/14 09:57:44;;;;;;;9.02;5.55;;;;;;;32.53;19.98;101289.22;143724;623;46008;-62
2021/09/14 10:00:24;;;;;;;10.18;6.03;;;;;;;32.59;20.54;101287.84;143724;628;46007;-62
2021/09/14 10:03:15;;;;;;;12.98;6.62;;;;;;;32.61;20.98;101282.78;143726;609;46010;-61
2021/09/14 10:05:54;;;;;;;8.88;5.57;;;;;;;32.66;20.80;101284.53;143725;607;46008;-61
2021/09/14 10:08:34;;;;;;;12.43;5.87;;;;;;;32.72;21.08;101279.62;143726;590;46004;-62
2021/09/14 10:11:11;;;;;;;10.52;5.75;;;;;;;32.71;21.28;101283.53;143721;574;46008;-61
2021/09/14 10:13:48;;;;;;;9.63;5.53;;;;;;;32.65;20.94;101285.72;143728;569;46008;-61
2021/09/14 10:16:44;;;;;;;9.13;6.00;;;;;;;32.74;21.03;101288.44;143725;599;46010;-61
2021/09/14 10:19:31;;;;;;;8.48;5.95;;;;;;;32.78;21.46;101286.59;143725;582;47006;-61
2021/09/14 10:22:26;;;;;;;11.55;6.15;;;;;;;32.87;20.67;101286.56;143722;597;46006;-61
2021/09/14 10:25:04;;;;;;;9.55;5.62;;;;;;;32.92;20.63;101276.03;143727;573;46010;-61
2021/09/14 10:27:51;;;;;;;7.37;5.70;;;;;;;33.01;20.50;101289.09;143717;603;46012;-63
2021/09/14 10:30:39;;;;;;;6.65;5.50;;;;;;;32.98;20.61;101279.47;143725;595;47003;-63
2021/09/14 10:33:32;;;;;;;7.47;5.93;;;;;;;33.02;20.92;101285.97;143722;601;46006;-63
2021/09/14 10:36:23;;;;;;;9.15;5.47;;;;;;;33.08;20.84;101279.03;143728;592;46010;-63
2021/09/14 10:39:02;;;;;;;9.15;5.40;;;;;;;33.08;19.41;101276.25;143723;579;46013;-62
2021/09/14 10:41:49;;;;;;;9.27;5.47;;;;;;;33.13;19.73;101280.81;143724;683;46008;-62
2021/09/14 10:44:44;;;;;;;12.20;5.82;;;;;;;33.19;19.67;101276.66;143722;575;47008;-61
2021/09/14 10:47:25;;;;;;;9.25;5.82;;;;;;;33.21;20.25;101279.94;143726;572;46008;-62
2021/09/14 10:50:05;;;;;;;8.57;5.32;;;;;;;33.24;19.36;101276.47;143725;611;46034;-62
2021/09/14 10:52:44;;;;;;;8.95;5.47;;;;;;;33.24;20.57;101276.47;143723;601;47004;-61
2021/09/14 10:55:23;;;;;;;7.30;5.80;;;;;;;33.25;20.14;101277.28;143727;572;46008;-62
2021/09/14 10:58:09;;;;;;;7.53;4.97;;;;;;;33.31;20.12;101275.09;143727;591;47002;-62
2021/09/14 11:00:48;;;;;;;8.18;4.65;;;;;;;33.31;19.87;101270.34;143725;583;46009;-64
2021/09/14 11:03:29;;;;;;;8.90;5.43;;;;;;;33.34;19.98;101269.69;143726;613;46004;-64
2021/09/14 11:06:07;;;;;;;7.62;5.25;;;;;;;33.38;20.81;101278.19;143726;578;46008;-64
2021/09/14 11:08:46;;;;;;;9.57;5.00;;;;;;;33.37;19.39;101273.75;143727;653;46010;-61
2021/09/14 11:11:27;;;;;;;7.12;5.07;;;;;;;33.27;19.36;101269.41;143723;588;47006;-60
2021/09/14 11:14:06;;;;;;;9.02;5.32;;;;;;;33.28;19.76;101270.19;143724;595;47006;-61
2021/09/14 11:16:43;;;;;;;8.82;5.12;;;;;;;33.26;20.60;101270.56;143728;599;46002;-62
2021/09/14 11:19:30;;;;;;;8.75;5.70;;;;;;;33.29;20.33;101266.25;143727;621;47002;-60
2021/09/14 11:22:08;;;;;;;7.62;5.40;;;;;;;33.29;20.68;101275.44;143724;671;46010;-62
2021/09/14 11:24:57;;;;;;;7.50;5.65;;;;;;;33.30;20.21;101253.97;143723;598;47004;-61
2021/09/14 11:27:36;;;;;;;10.82;5.72;;;;;;;33.19;19.78;101259.12;143725;614;46006;-62
2021/09/14 11:30:14;;;;;;;11.93;5.30;;;;;;;33.21;20.59;101254.88;143726;580;47004;-61
2021/09/14 11:32:55;;;;;;;9.75;5.32;;;;;;;33.29;20.09;101260.69;143725;650;46008;-62
2021/09/14 11:35:34;;;;;;;10.23;5.43;;;;;;;33.18;19.57;101255.56;143726;582;46006;-61
2021/09/14 11:38:29;;;;;;;6.15;5.55;;;;;;;33.25;20.26;101261.41;143725;736;46007;-62
2021/09/14 11:41:10;;;;;;;7.12;5.03;;;;;;;33.28;19.35;101253.50;143729;584;46010;-62
2021/09/14 11:43:57;;;;;;;13.00;9.07;;;;;;;33.29;20.16;101244.00;143726;605;46012;-61
2021/09/14 11:46:35;;;;;;;12.82;10.02;;;;;;;33.29;20.12;101238.44;143727;576;46004;-60
2021/09/14 11:49:17;;;;;;;24.50;20.15;;;;;;;33.32;20.40;101244.16;143724;621;46008;-61
2021/09/14 11:52:04;;;;;;;10.57;6.82;;;;;;;33.36;19.41;101241.50;143728;637;47002;-61
2021/09/14 11:54:50;;;;;;;11.02;7.07;;;;;;;33.34;19.11;101241.84;143727;588;46926;-62
2021/09/14 11:57:28;;;;;;;7.30;5.70;;;;;;;33.27;21.48;101247.13;143725;621;47006;-62
2021/09/14 12:00:13;;;;;;;7.70;5.60;;;;;;;33.19;23.79;101248.00;143726;666;46007;-61
2021/09/14 12:03:01;;;;;;;11.10;5.65;;;;;;;33.16;24.62;101243.16;143726;649;47000;-61
2021/09/14 12:05:39;;;;;;;8.90;5.45;;;;;;;33.07;23.12;101243.22;143726;591;46012;-61
2021/09/14 12:08:30;;;;;;;13.10;5.70;;;;;;;33.09;23.29;101240.91;143720;625;48002;-61
2021/09/14 12:11:08;;;;;;;9.27;6.07;;;;;;;32.98;24.30;101239.69;143726;572;46004;-61
2021/09/14 12:13:51;;;;;;;8.13;5.97;;;;;;;32.76;26.49;101242.44;143729;572;46002;-61
2021/09/14 12:16:52;;;;;;;9.47;5.77;;;;;;;32.64;25.48;101232.03;143722;651;46011;-62
2021/09/14 12:19:27;;;;;;;14.25;5.75;;;;;;;32.42;27.61;101237.91;143726;592;46012;-61
2021/09/14 12:22:08;;;;;;;7.75;5.55;;;;;;;32.32;26.73;101227.97;143726;660;46006;-61
2021/09/14 12:24:47;;;;;;;7.62;5.15;;;;;;;32.38;27.34;101231.41;143728;659;47000;-62
2021/09/14 12:27:29;;;;;;;7.97;5.18;;;;;;;32.20;28.31;101221.16;143727;577;46010;-60
2021/09/14 12:30:07;;;;;;;8.45;5.57;;;;;;;32.19;28.52;101224.28;143725;572;47007;-60
2021/09/14 12:32:49;;;;;;;10.63;6.07;;;;;;;32.21;29.04;101224.75;143726;560;46006;-62
2021/09/14 12:35:28;;;;;;;8.43;5.45;;;;;;;31.95;26.79;101231.22;143729;660;46010;-61
2021/09/14 12:38:08;;;;;;;8.68;5.20;;;;;;;32.00;27.27;101222.72;143728;612;46011;-60
2021/09/14 12:40:45;;;;;;;13.13;5.53;;;;;;;32.01;25.83;101223.53;143726;653;46008;-60
2021/09/14 12:43:25;;;;;;;11.90;4.95;;;;;;;31.97;25.81;101217.00;143718;573;47008;-61
2021/09/14 12:46:02;;;;;;;7.40;5.25;;;;;;;31.98;25.23;101225.00;143727;626;47002;-61
2021/09/14 12:48:53;;;;;;;9.85;6.03;;;;;;;32.06;24.80;101221.38;143727;590;46008;-61
2021/09/14 12:51:31;;;;;;;10.00;5.75;;;;;;;32.05;22.82;101222.50;143726;595;46009;-60
2021/09/14 12:54:08;;;;;;;8.65;5.45;;;;;;;32.04;24.11;101226.44;143723;573;47008;-61
2021/09/14 12:56:47;;;;;;;11.38;4.95;;;;;;;31.83;24.05;101231.91;143728;614;47000;-61
2021/09/14 12:59:24;;;;;;;7.43;5.30;;;;;;;31.79;24.72;101219.84;143727;592;46010;-61
2021/09/14 13:02:03;;;;;;;7.57;4.60;;;;;;;31.75;23.56;101225.25;143725;640;47006;-62
2021/09/14 13:04:39;;;;;;;9.80;4.82;;;;;;;31.75;23.73;101218.91;143725;572;46006;-62
2021/09/14 13:07:18;;;;;;;6.45;4.62;;;;;;;31.78;25.77;101229.31;143724;660;47000;-61
2021/09/14 13:09:55;;;;;;;7.82;4.62;;;;;;;31.79;26.59;101221.81;143726;602;47006;-62
2021/09/14 13:12:32;;;;;;;12.55;4.62;;;;;;;31.83;26.26;101225.56;143726;599;46006;-62
2021/09/14 13:18:03;;;;;;;10.70;5.60;;;;;;;31.73;26.73;101224.75;143728;591;46010;-61
2021/09/14 13:20:51;;;;;;;8.00;5.05;;;;;;;31.71;25.28;101209.59;143725;596;46010;-61